Terminal Aerodrome Forecast
Issued by NWS

Current Version | Previous Version | Text Only | Print | Product List | Glossary On
Versions: 1 2 3 4 5 6 7 8 9 10 11 12 13 14 15 16 17 18 19 20 21 22 23 24 25 26 27 28 29 30 31 32 33 34 35 36
000 FTUS41 KBOX 270543 TAFACK TAF KACK 270543Z 2706/2806 04042G55KT 1 1/2SM -SN BLSN OVC003 WS020/04070KT FM270800 04039G65KT 1SM -RASNPL BLSN OVC008 WS020/04070KT FM271000 03038G64KT 1/2SM RASNPL BLSN OVC008 WS020/04065KT FM271200 03037G58KT 1SM -RASN OVC008 WS020/03065KT FM271700 01031G50KT 1SM -RASN OVC008 WS020/01060KT FM271900 01029G50KT 2SM -SNRA BLSN OVC008 FM272200 36028G50KT 2SM -SN BLSN OVC008=

USA.gov is the U.S. government's official web portal to all federal, state and local government web resources and services.